Gibson, North Carolina
Current Conditions -  °F | °C
As of 12:35 AM on Wednesday 22 Oct 2014 (Local Time) from KBBP Reporting Station
Broken Clouds Broken Clouds  
Wind Chill: 61°   Ceiling: 8500
Heat Index: 61°   Visibility: 10mi
Dew Point: 28°   Wind: 9mph
Humidity: 29%   Direction: 340°NNW
Pressure: 29.95"   Gusts: 18mph
Location:  34.76°N, 79.61°W
Report Text: KBBP 220435Z AUTO 34008G16KT 10SM SCT070 BKN085 16/M02 A2995 RMK AO2
Loading
Personal Weather Stations






























Interactive Weather Map
Tropical Storm Tracking
New forecast layout! Learn more

10-Day Weather Forecast

Advertisements
Track Severe Weather on mobile